Time;durP1;ratioP1;P1;durP2;ratioP2;P2;SDS_P1;SDS_P2;PMS_P1;PMS_P2;Temp;Humidity;BMP_temperature;BMP_pressure;BME280_temperature;BME280_humidity;BME280_pressure;Samples;Min_cycle;Max_cycle;Signal;HPM_P1;HPM_P2
2022/12/26 00:02:12;;;;;;;3.75;3.38;;;20.90;68.20;;;;;;5006906;28;89174;-88
2022/12/26 00:04:38;;;;;;;4.45;3.40;;;20.90;68.60;;;;;;5014761;27;87657;-88
2022/12/26 00:07:03;;;;;;;4.82;3.35;;;20.90;68.40;;;;;;5014951;27;88119;-88
2022/12/26 00:09:31;;;;;;;9.13;3.75;;;20.90;68.50;;;;;;5014761;27;87512;-86
2022/12/26 00:11:57;;;;;;;3.88;3.35;;;20.90;68.60;;;;;;5014242;27;87457;-87
2022/12/26 00:14:23;;;;;;;3.83;3.08;;;20.80;68.50;;;;;;5014963;28;89707;-88
2022/12/26 00:16:48;;;;;;;5.38;3.40;;;20.80;68.60;;;;;;5014552;28;92983;-87
2022/12/26 00:19:14;;;;;;;6.25;3.33;;;20.80;68.70;;;;;;5013794;27;87562;-87
2022/12/26 00:21:40;;;;;;;5.10;3.35;;;20.80;68.60;;;;;;5014790;27;87558;-87
2022/12/26 00:24:06;;;;;;;4.63;3.47;;;20.80;68.70;;;;;;5013895;27;88705;-88
2022/12/26 00:26:34;;;;;;;4.03;2.97;;;20.80;68.80;;;;;;5013926;27;88124;-87
2022/12/26 00:29:00;;;;;;;4.53;3.13;;;20.80;68.70;;;;;;5014893;28;87452;-88
2022/12/26 00:31:29;;;;;;;6.07;3.50;;;20.70;68.70;;;;;;5014679;27;87449;-86
2022/12/26 00:33:55;;;;;;;4.65;3.75;;;20.70;68.80;;;;;;5011825;27;89518;-88
2022/12/26 00:36:23;;;;;;;4.40;3.10;;;20.70;69.00;;;;;;5014442;27;88848;-87
2022/12/26 00:38:50;;;;;;;4.35;3.40;;;20.70;69.20;;;;;;5014221;27;88414;-87
2022/12/26 00:41:17;;;;;;;5.35;3.70;;;20.70;69.00;;;;;;5014311;28;89551;-87
2022/12/26 00:43:43;;;;;;;3.60;2.95;;;20.70;69.00;;;;;;5015038;27;88419;-86
2022/12/26 00:46:10;;;;;;;4.07;3.25;;;20.70;69.20;;;;;;5014105;27;88234;-88
2022/12/26 00:48:36;;;;;;;4.30;2.88;;;20.60;70.00;;;;;;5013927;27;87472;-87
2022/12/26 00:51:02;;;;;;;4.07;3.05;;;20.60;69.10;;;;;;5013914;27;87354;-86
2022/12/26 00:53:28;;;;;;;4.22;3.38;;;20.60;69.10;;;;;;5014384;27;88383;-88
2022/12/26 00:55:53;;;;;;;4.20;3.33;;;20.60;69.10;;;;;;5013787;28;88292;-88
2022/12/26 00:58:20;;;;;;;3.38;3.08;;;20.60;69.20;;;;;;5015253;27;86955;-86
2022/12/26 01:00:46;;;;;;;4.68;3.00;;;20.50;69.10;;;;;;5013430;27;87172;-87
2022/12/26 01:03:12;;;;;;;4.45;3.20;;;20.60;69.10;;;;;;5013170;27;89101;-87
2022/12/26 01:05:42;;;;;;;5.15;3.50;;;20.50;69.20;;;;;;5013252;27;88102;-88
2022/12/26 01:08:08;;;;;;;3.97;3.15;;;20.50;69.10;;;;;;5014315;28;87303;-88
2022/12/26 01:10:34;;;;;;;4.18;3.05;;;20.50;69.10;;;;;;5013526;27;87706;-88
2022/12/26 01:12:59;;;;;;;3.65;2.97;;;20.50;69.10;;;;;;5013885;27;89004;-88
2022/12/26 01:15:25;;;;;;;5.40;3.08;;;20.50;69.20;;;;;;5013770;27;88328;-88
2022/12/26 01:17:51;;;;;;;5.00;3.20;;;20.50;69.20;;;;;;5013709;27;86883;-88
2022/12/26 01:20:16;;;;;;;3.83;3.03;;;20.50;69.10;;;;;;5014638;28;87076;-88
2022/12/26 01:22:42;;;;;;;4.40;3.20;;;20.50;69.10;;;;;;5013961;27;89066;-86
2022/12/26 01:25:09;;;;;;;4.53;3.60;;;20.40;69.00;;;;;;5013051;27;87931;-88
2022/12/26 01:27:35;;;;;;;3.50;2.90;;;20.40;69.00;;;;;;5013688;27;88330;-88
2022/12/26 01:30:00;;;;;;;3.28;2.80;;;20.40;69.10;;;;;;5013605;27;87460;-87
2022/12/26 01:32:26;;;;;;;3.53;2.63;;;20.40;69.10;;;;;;5013491;27;88038;-88
2022/12/26 01:34:54;;;;;;;3.97;2.97;;;20.40;69.20;;;;;;5014179;28;88870;-87
2022/12/26 01:37:21;;;;;;;2.97;2.53;;;20.40;69.30;;;;;;5013910;27;87480;-87
2022/12/26 01:39:47;;;;;;;4.45;3.47;;;20.40;69.30;;;;;;5013565;27;87067;-88
2022/12/26 01:42:15;;;;;;;3.38;2.80;;;20.40;69.20;;;;;;5012646;27;88451;-88
2022/12/26 01:45:29;;;;;;;4.38;3.15;;;20.40;69.50;;;;;;5012674;27;87272;-87
2022/12/26 01:48:02;;;;;;;3.72;3.03;;;20.40;69.10;;;;;;4979321;28;86908;-87
2022/12/26 01:51:08;;;;;;;3.55;2.97;;;20.30;69.30;;;;;;4982303;28;87570;-88
2022/12/26 01:53:44;;;;;;;3.15;2.85;;;20.30;69.20;;;;;;4978498;28;89974;-88
2022/12/26 01:56:17;;;;;;;3.38;3.03;;;20.30;69.20;;;;;;4981185;28;88519;-88
2022/12/26 01:58:49;;;;;;;3.78;3.00;;;20.30;69.40;;;;;;4978916;28;87342;-87
2022/12/26 02:01:16;;;;;;;5.25;2.97;;;20.30;69.20;;;;;;4966685;28;87471;-87
2022/12/26 02:06:29;;;;;;;3.33;2.85;;;20.30;69.50;;;;;;4980005;28;87069;-86
2022/12/26 02:08:55;;;;;;;3.67;2.75;;;20.30;69.30;;;;;;4981363;28;87469;-88
2022/12/26 02:11:43;;;;;;;3.97;3.17;;;20.20;69.10;;;;;;4980400;28;87011;-88
2022/12/26 02:14:09;;;;;;;3.33;2.80;;;20.20;69.20;;;;;;4981680;28;92800;-85
2022/12/26 02:16:37;;;;;;;4.22;3.20;;;20.20;69.20;;;;;;4978348;28;87809;-85
2022/12/26 02:19:05;;;;;;;5.18;2.88;;;20.20;69.30;;;;;;4977480;28;88266;-86
2022/12/26 02:21:31;;;;;;;3.30;2.50;;;20.20;69.20;;;;;;4977276;28;87756;-85
2022/12/26 02:24:08;;;;;;;3.45;2.90;;;20.20;69.30;;;;;;4966367;28;87533;-85
2022/12/26 02:27:15;;;;;;;4.07;2.85;;;20.20;69.20;;;;;;4939188;28;88282;-85
2022/12/26 02:30:02;;;;;;;3.55;2.70;;;20.20;69.30;;;;;;4950801;28;87167;-85
2022/12/26 02:32:39;;;;;;;2.92;2.60;;;20.20;69.40;;;;;;4962226;28;87323;-85
2022/12/26 02:35:24;;;;;;;3.35;2.53;;;20.20;69.40;;;;;;4962921;28;88551;-87
2022/12/26 02:38:20;;;;;;;3.55;3.03;;;20.20;69.30;;;;;;4963910;28;92520;-84
2022/12/26 02:40:55;;;;;;;3.60;2.28;;;20.10;69.20;;;;;;4964211;28;87608;-85
2022/12/26 02:43:58;;;;;;;3.05;2.75;;;20.10;69.20;;;;;;4960600;28;87176;-86
2022/12/26 02:47:02;;;;;;;3.38;2.70;;;20.10;69.30;;;;;;4910731;28;89050;-85
2022/12/26 03:13:12;;;;;;;2.80;2.60;;;20.10;69.40;;;;;;4872810;28;87040;-85
2022/12/26 03:18:28;;;;;;;2.50;2.30;;;20.00;69.40;;;;;;4892230;28;87425;-85
2022/12/26 03:20:54;;;;;;;2.90;2.60;;;20.00;69.20;;;;;;4891379;28;88271;-84
2022/12/26 03:23:21;;;;;;;2.78;2.35;;;20.00;69.60;;;;;;4925816;28;88040;-86
2022/12/26 03:28:37;;;;;;;2.95;2.63;;;20.00;69.40;;;;;;4979031;28;87701;-85
2022/12/26 03:31:12;;;;;;;2.85;2.50;;;20.00;69.40;;;;;;5011242;27;88435;-86
2022/12/26 03:36:38;;;;;;;4.05;2.80;;;20.00;69.20;;;;;;5011920;27;87843;-85
2022/12/26 04:20:18;;;;;;;2.75;2.55;;;19.80;69.50;;;;;;5003114;28;91707;-86
2022/12/26 04:44:11;;;;;;;4.10;2.35;;;19.90;68.40;;;;;;4931751;28;92598;-85
2022/12/26 04:46:39;;;;;;;3.80;1.85;;;19.90;67.10;;;;;;4931050;28;87335;-83
2022/12/26 04:51:55;;;;;;;3.85;2.72;;;19.90;65.40;;;;;;4930575;28;87745;-86
2022/12/26 04:54:21;;;;;;;5.30;2.53;;;20.00;66.00;;;;;;4930743;28;88344;-86
2022/12/26 04:56:46;;;;;;;4.10;2.63;;;19.90;65.70;;;;;;4931791;28;87662;-85
2022/12/26 04:59:12;;;;;;;6.05;2.55;;;20.00;65.50;;;;;;4932627;28;86525;-84
2022/12/26 05:10:26;;;;;;;5.65;2.30;;;19.90;66.70;;;;;;5011337;27;86880;-87
2022/12/26 05:12:52;;;;;;;7.40;2.75;;;19.90;66.30;;;;;;5011472;27;88755;-86
2022/12/26 05:15:18;;;;;;;4.38;2.47;;;19.80;66.60;;;;;;5012267;27;87358;-86
2022/12/26 05:28:58;;;;;;;6.82;2.63;;;19.70;68.60;;;;;;5010663;28;87188;-84
2022/12/26 05:31:24;;;;;;;9.02;3.00;;;19.70;68.90;;;;;;5011149;27;88363;-86
2022/12/26 05:34:06;;;;;;;5.65;2.75;;;19.80;68.10;;;;;;5010926;27;88892;-83
2022/12/26 05:37:04;;;;;;;3.90;2.45;;;19.80;69.00;;;;;;5010865;27;88829;-83
2022/12/26 05:39:29;;;;;;;5.53;2.65;;;19.80;68.80;;;;;;4978642;28;87763;-83
2022/12/26 05:41:55;;;;;;;5.10;2.50;;;19.80;69.60;;;;;;4977100;28;87711;-85
2022/12/26 05:44:21;;;;;;;5.00;2.53;;;19.70;69.80;;;;;;4984102;28;88533;-85
2022/12/26 05:46:47;;;;;;;3.97;2.40;;;19.80;69.40;;;;;;4978768;28;89017;-86
2022/12/26 05:49:13;;;;;;;5.60;2.40;;;19.80;69.50;;;;;;4978461;28;87683;-85
2022/12/26 05:51:38;;;;;;;9.07;3.13;;;19.70;69.50;;;;;;4980479;28;86987;-82
2022/12/26 05:54:04;;;;;;;6.32;2.92;;;19.70;69.70;;;;;;4978704;28;88734;-85
2022/12/26 05:56:30;;;;;;;4.00;2.55;;;19.70;70.00;;;;;;4979946;28;88338;-83
2022/12/26 05:58:57;;;;;;;4.50;2.40;;;19.70;70.00;;;;;;4979800;28;88271;-85
2022/12/26 06:01:25;;;;;;;4.00;2.55;;;19.70;69.90;;;;;;4981308;28;88610;-86
2022/12/26 06:03:53;;;;;;;6.45;2.65;;;19.60;70.00;;;;;;4981637;28;89548;-87
2022/12/26 06:06:20;;;;;;;4.60;2.78;;;19.60;69.90;;;;;;4981169;28;87455;-86
2022/12/26 06:08:53;;;;;;;3.80;2.40;;;19.60;69.80;;;;;;4976628;28;87649;-85
2022/12/26 06:11:19;;;;;;;7.15;2.58;;;19.60;70.00;;;;;;4977919;28;87566;-87
2022/12/26 06:13:45;;;;;;;4.15;2.65;;;19.60;70.10;;;;;;4977868;28;88760;-85
2022/12/26 06:16:14;;;;;;;3.95;2.70;;;19.60;70.10;;;;;;5008726;27;88435;-87
2022/12/26 06:18:39;;;;;;;4.80;2.88;;;19.60;70.20;;;;;;5010329;27;87221;-86
2022/12/26 06:21:11;;;;;;;3.00;2.33;;;19.60;70.00;;;;;;5010794;27;87438;-86
2022/12/26 06:23:38;;;;;;;3.35;2.60;;;19.60;70.10;;;;;;5009627;27;88354;-87
2022/12/26 06:26:04;;;;;;;6.50;2.70;;;19.60;70.10;;;;;;5010002;28;88276;-85
2022/12/26 06:28:32;;;;;;;5.55;2.63;;;19.50;69.90;;;;;;5010998;27;87394;-87
2022/12/26 06:31:13;;;;;;;4.80;2.80;;;19.50;69.80;;;;;;5009950;27;87478;-85
2022/12/26 06:33:39;;;;;;;4.43;2.38;;;19.50;70.00;;;;;;5010222;27;88319;-87
2022/12/26 06:36:13;;;;;;;5.22;2.47;;;19.50;70.00;;;;;;5009212;27;88307;-85
2022/12/26 06:38:39;;;;;;;4.65;2.42;;;19.50;69.90;;;;;;5010064;27;87151;-86
2022/12/26 06:41:07;;;;;;;4.07;2.50;;;19.50;69.90;;;;;;5010627;28;87265;-87
2022/12/26 06:43:32;;;;;;;4.00;2.70;;;19.50;70.10;;;;;;5009559;27;88601;-84
2022/12/26 06:45:59;;;;;;;4.35;2.63;;;19.50;69.90;;;;;;5009329;27;87784;-87
2022/12/26 06:48:26;;;;;;;4.35;2.75;;;19.50;69.80;;;;;;5009503;27;88429;-87
2022/12/26 06:50:53;;;;;;;3.05;2.20;;;19.50;69.80;;;;;;5009248;27;87604;-85
2022/12/26 06:53:20;;;;;;;3.53;2.88;;;19.50;69.70;;;;;;5009740;28;88288;-87
2022/12/26 06:55:46;;;;;;;5.40;2.58;;;19.50;69.70;;;;;;5009220;27;88616;-85
2022/12/26 06:58:11;;;;;;;3.72;2.40;;;19.50;70.50;;;;;;5009627;27;87499;-86
2022/12/26 07:00:37;;;;;;;5.65;2.92;;;19.50;69.70;;;;;;5010600;27;89042;-86
2022/12/26 07:03:03;;;;;;;3.97;2.67;;;19.50;69.80;;;;;;5009980;27;88842;-86
2022/12/26 07:05:28;;;;;;;3.72;2.40;;;19.50;69.50;;;;;;5009998;27;87211;-87
2022/12/26 07:07:54;;;;;;;5.43;2.88;;;19.50;69.50;;;;;;5002158;28;87313;-84
2022/12/26 07:10:20;;;;;;;3.80;2.78;;;19.50;69.40;;;;;;5009302;27;87260;-87
2022/12/26 07:12:47;;;;;;;4.03;2.40;;;19.50;69.40;;;;;;5008594;27;89217;-87
2022/12/26 07:15:13;;;;;;;4.07;2.60;;;19.50;69.40;;;;;;5009976;27;89636;-84
2022/12/26 07:17:38;;;;;;;5.07;2.35;;;19.40;69.40;;;;;;5009389;27;87592;-85
2022/12/26 07:20:05;;;;;;;5.03;2.42;;;19.40;69.50;;;;;;5009472;28;87894;-84
2022/12/26 07:22:31;;;;;;;4.25;2.58;;;19.50;69.40;;;;;;5008616;27;88390;-87
2022/12/26 07:24:57;;;;;;;5.05;2.67;;;19.40;69.40;;;;;;5008827;27;88092;-87
2022/12/26 07:27:23;;;;;;;4.07;2.17;;;19.40;69.40;;;;;;5009487;27;87121;-86
2022/12/26 07:29:48;;;;;;;5.35;2.55;;;19.40;69.40;;;;;;5008703;28;93901;-84
2022/12/26 07:32:14;;;;;;;4.38;2.33;;;19.40;70.20;;;;;;5009743;28;88564;-84
2022/12/26 07:34:41;;;;;;;4.68;2.45;;;19.40;69.40;;;;;;5009183;27;87358;-84
2022/12/26 07:37:06;;;;;;;4.97;2.13;;;19.40;69.50;;;;;;5008940;27;88504;-83
2022/12/26 07:39:32;;;;;;;4.25;2.53;;;19.50;69.40;;;;;;5007833;27;87537;-82
2022/12/26 07:41:58;;;;;;;3.88;2.53;;;19.50;66.90;;;;;;5006828;28;91667;-81
2022/12/26 07:44:29;;;;;;;7.18;2.45;;;19.50;66.90;;;;;;5008194;28;88483;-82
2022/12/26 07:46:55;;;;;;;9.45;2.42;;;19.60;67.50;;;;;;5007291;28;87426;-82
2022/12/26 07:49:21;;;;;;;3.38;2.00;;;19.60;65.90;;;;;;5007341;27;87377;-84
2022/12/26 07:51:47;;;;;;;4.70;2.33;;;19.60;65.10;;;;;;5009229;27;88420;-84
2022/12/26 07:54:13;;;;;;;3.13;1.90;;;19.60;66.50;;;;;;5020042;27;87227;-84
2022/12/26 07:56:39;;;;;;;4.57;2.58;;;19.60;67.70;;;;;;5014825;27;87711;-84
2022/12/26 07:59:05;;;;;;;3.13;2.42;;;19.50;67.40;;;;;;5011728;28;87045;-85
2022/12/26 08:01:30;;;;;;;3.47;2.35;;;19.50;67.60;;;;;;5010870;27;89583;-87
2022/12/26 08:03:56;;;;;;;5.25;2.35;;;19.50;67.60;;;;;;5011845;27;88836;-85
2022/12/26 08:06:22;;;;;;;6.22;2.00;;;19.60;67.60;;;;;;5011349;27;87516;-85
2022/12/26 08:08:47;;;;;;;5.28;2.50;;;19.70;67.20;;;;;;5012149;27;87241;-83
2022/12/26 08:11:15;;;;;;;6.20;2.67;;;19.60;67.70;;;;;;5012782;28;88651;-85
2022/12/26 08:13:41;;;;;;;4.10;1.80;;;19.60;67.90;;;;;;5011743;27;87326;-83
2022/12/26 08:16:08;;;;;;;3.40;2.10;;;19.60;67.80;;;;;;5011344;27;86972;-83
2022/12/26 08:18:34;;;;;;;3.30;2.10;;;19.70;67.50;;;;;;5010393;27;86719;-83
2022/12/26 08:20:59;;;;;;;3.15;1.70;;;19.80;67.70;;;;;;5011661;27;88083;-83
2022/12/26 08:23:25;;;;;;;4.43;2.35;;;19.80;67.60;;;;;;5010867;27;87878;-85
2022/12/26 08:25:51;;;;;;;5.78;2.50;;;19.80;67.70;;;;;;5011733;28;88432;-84
2022/12/26 08:28:16;;;;;;;4.93;1.73;;;20.00;67.60;;;;;;5011052;27;87408;-85
2022/12/26 08:30:43;;;;;;;6.65;2.47;;;20.10;67.20;;;;;;5011543;27;89214;-86
2022/12/26 08:33:09;;;;;;;3.05;2.10;;;20.10;66.90;;;;;;5011993;27;88075;-84
2022/12/26 08:35:36;;;;;;;4.00;1.88;;;20.20;67.00;;;;;;5012658;27;87482;-85
2022/12/26 08:38:02;;;;;;;4.85;2.35;;;20.20;67.00;;;;;;5011964;28;87439;-85
2022/12/26 08:40:28;;;;;;;3.53;2.05;;;20.30;66.80;;;;;;5005283;27;90999;-86
2022/12/26 08:42:54;;;;;;;3.85;2.08;;;20.30;67.10;;;;;;5012231;27;88293;-85
2022/12/26 08:45:19;;;;;;;4.82;1.73;;;20.30;67.00;;;;;;4965155;27;87559;-86
2022/12/26 08:47:45;;;;;;;3.78;1.90;;;20.20;67.40;;;;;;5033095;27;87835;-85
2022/12/26 08:50:11;;;;;;;4.40;2.13;;;20.20;67.50;;;;;;5012262;28;88941;-86
2022/12/26 08:52:36;;;;;;;3.50;1.90;;;20.20;67.70;;;;;;5012430;27;89182;-85
2022/12/26 08:55:03;;;;;;;3.70;2.00;;;20.20;67.80;;;;;;5012005;27;87507;-85
2022/12/26 08:57:28;;;;;;;6.32;2.20;;;20.10;67.80;;;;;;5012238;27;89404;-84
2022/12/26 08:59:54;;;;;;;3.92;2.03;;;20.20;67.90;;;;;;5012739;27;88073;-86
2022/12/26 09:02:20;;;;;;;6.07;1.92;;;20.20;68.00;;;;;;5014312;28;88139;-86
2022/12/26 09:04:45;;;;;;;4.35;2.10;;;20.10;68.30;;;;;;5013386;27;87613;-83
2022/12/26 09:07:11;;;;;;;5.53;2.20;;;20.10;68.30;;;;;;5013233;27;86876;-82
2022/12/26 09:09:37;;;;;;;5.45;2.22;;;20.20;68.40;;;;;;5011251;27;87467;-82
2022/12/26 09:12:03;;;;;;;4.90;2.47;;;20.10;68.10;;;;;;5010380;27;88260;-83
2022/12/26 09:14:29;;;;;;;7.07;1.77;;;20.10;68.10;;;;;;5008979;27;88646;-85
2022/12/26 09:16:54;;;;;;;7.63;2.30;;;20.10;68.30;;;;;;5010512;28;87338;-84
2022/12/26 09:19:20;;;;;;;4.78;2.13;;;20.10;67.90;;;;;;5010039;27;88632;-84
2022/12/26 09:21:47;;;;;;;7.45;2.22;;;20.10;68.50;;;;;;5010384;27;88890;-86
2022/12/26 09:24:16;;;;;;;8.07;2.30;;;20.10;68.40;;;;;;5007817;27;87594;-84
2022/12/26 09:26:43;;;;;;;4.82;1.92;;;20.10;68.40;;;;;;5011802;27;87306;-86
2022/12/26 09:29:12;;;;;;;5.80;2.10;;;20.10;68.30;;;;;;5013814;28;88563;-85
2022/12/26 09:31:38;;;;;;;7.93;2.47;;;20.10;68.70;;;;;;5028052;27;90974;-85
2022/12/26 09:34:05;;;;;;;4.63;2.00;;;20.10;68.50;;;;;;5013360;27;87380;-85
2022/12/26 09:36:36;;;;;;;3.00;1.65;;;20.10;68.50;;;;;;5013225;27;87021;-83
2022/12/26 09:39:03;;;;;;;4.53;1.85;;;20.20;68.30;;;;;;5011897;27;89878;-84
2022/12/26 09:41:58;;;;;;;6.22;2.42;;;20.10;68.40;;;;;;5009142;27;89329;-83
2022/12/26 09:44:33;;;;;;;7.15;2.50;;;20.20;68.10;;;;;;5012700;28;86987;-83
2022/12/26 09:47:17;;;;;;;7.88;2.67;;;20.10;67.30;;;;;;5011575;28;91123;-82
2022/12/26 09:49:57;;;;;;;5.10;2.25;;;20.10;68.00;;;;;;5011391;27;88014;-83
2022/12/26 09:52:48;;;;;;;6.68;2.63;;;20.10;68.30;;;;;;5011310;27;88083;-84
2022/12/26 09:55:25;;;;;;;8.30;2.60;;;20.10;68.50;;;;;;5011431;27;87546;-84
2022/12/26 09:57:53;;;;;;;9.70;3.35;;;20.10;67.30;;;;;;5011777;27;87220;-84
2022/12/26 10:00:22;;;;;;;8.10;3.10;;;20.10;66.50;;;;;;5011797;27;87319;-83
2022/12/26 10:02:50;;;;;;;;;;;20.00;66.20;;;;;;5010443;27;87934;-84
2022/12/26 10:05:16;;;;;;;6.30;2.85;;;20.00;66.70;;;;;;5010797;28;88226;-84
2022/12/26 10:07:48;;;;;;;5.60;2.92;;;20.00;66.50;;;;;;5009932;27;87588;-83
2022/12/26 10:10:24;;;;;;;6.78;2.40;;;20.10;66.70;;;;;;5010501;27;89042;-83
2022/12/26 10:13:07;;;;;;;10.95;3.03;;;20.10;67.00;;;;;;5009700;27;88453;-85
2022/12/26 10:15:43;;;;;;;7.28;3.08;;;20.10;67.10;;;;;;5011357;27;87409;-84
2022/12/26 10:18:55;;;;;;;6.63;3.10;;;20.10;67.00;;;;;;5012147;27;87814;-84
2022/12/26 10:21:34;;;;;;;5.80;2.55;;;20.10;67.00;;;;;;4911161;28;88335;-85
2022/12/26 10:24:21;;;;;;;12.57;3.55;;;20.00;67.20;;;;;;4898510;28;90039;-84
2022/12/26 10:26:54;;;;;;;20.02;5.93;;;20.10;67.70;;;;;;4929524;28;87535;-84
2022/12/26 10:29:26;;;;;;;52.55;10.65;;;20.10;67.70;;;;;;4913792;28;89141;-84
2022/12/26 10:31:52;;;;;;;31.35;7.22;;;20.10;67.30;;;;;;4928151;28;93426;-84
2022/12/26 10:34:28;;;;;;;24.73;5.75;;;20.10;67.80;;;;;;4929286;28;89057;-83
2022/12/26 10:37:29;;;;;;;22.45;5.75;;;20.00;68.00;;;;;;4927673;28;87409;-83
2022/12/26 10:40:17;;;;;;;21.85;5.63;;;20.00;68.00;;;;;;4859180;28;87844;-83
2022/12/26 10:42:51;;;;;;;14.40;5.20;;;20.00;68.10;;;;;;4861116;28;87657;-84
2022/12/26 10:45:21;;;;;;;20.85;6.38;;;20.00;67.90;;;;;;4861709;28;87651;-85
2022/12/26 10:47:49;;;;;;;16.15;5.13;;;20.00;67.30;;;;;;4860838;28;87361;-85
2022/12/26 10:50:23;;;;;;;21.63;5.00;;;20.10;67.20;;;;;;4862851;28;87478;-87
2022/12/26 10:52:49;;;;;;;19.52;5.75;;;20.20;66.90;;;;;;4863345;28;89220;-87
2022/12/26 10:55:18;;;;;;;22.48;5.53;;;20.20;67.10;;;;;;4862396;28;87490;-86
2022/12/26 10:57:49;;;;;;;18.52;5.78;;;20.20;67.40;;;;;;4866136;28;88964;-85
2022/12/26 11:00:18;;;;;;;18.23;5.40;;;20.10;67.40;;;;;;4881086;28;88728;-85
2022/12/26 11:02:43;;;;;;;21.10;5.65;;;20.10;67.70;;;;;;4909642;28;88337;-85
2022/12/26 11:05:11;;;;;;;20.83;5.95;;;20.10;68.00;;;;;;4911434;28;88093;-85
2022/12/26 11:07:50;;;;;;;16.40;5.18;;;20.10;68.00;;;;;;4910237;28;87684;-85
2022/12/26 11:10:22;;;;;;;19.13;5.82;;;20.10;68.20;;;;;;4910487;28;88443;-87
2022/12/26 11:12:54;;;;;;;21.25;5.15;;;20.10;68.40;;;;;;4909726;28;88501;-82
2022/12/26 11:15:53;;;;;;;26.73;6.65;;;20.10;68.60;;;;;;4909435;28;87876;-86
2022/12/26 11:18:33;;;;;;;19.58;5.60;;;20.10;68.10;;;;;;4987256;28;87139;-85
2022/12/26 11:21:16;;;;;;;26.63;6.32;;;20.20;68.30;;;;;;4989880;28;87422;-83
2022/12/26 11:23:42;;;;;;;17.80;5.57;;;20.20;68.30;;;;;;5004867;28;88910;-86
2022/12/26 11:26:29;;;;;;;17.83;5.93;;;20.10;68.40;;;;;;4988920;28;89449;-84
2022/12/26 11:29:09;;;;;;;23.38;6.03;;;20.10;68.30;;;;;;4991685;28;87797;-85
2022/12/26 11:31:34;;;;;;;19.60;5.15;;;20.10;68.00;;;;;;4999949;28;89628;-86
2022/12/26 11:34:06;;;;;;;17.67;5.53;;;20.10;68.10;;;;;;5002881;28;88527;-85
2022/12/26 11:36:33;;;;;;;20.35;5.35;;;20.20;67.60;;;;;;5011942;28;88287;-84
2022/12/26 11:39:18;;;;;;;17.27;5.72;;;20.10;67.00;;;;;;5012260;28;87442;-86
2022/12/26 11:41:47;;;;;;;18.02;5.45;;;20.10;68.00;;;;;;5012378;28;87538;-84
2022/12/26 11:44:13;;;;;;;16.88;5.95;;;20.10;68.40;;;;;;5011169;28;89256;-83
2022/12/26 11:46:44;;;;;;;20.30;6.07;;;20.10;68.30;;;;;;5010234;28;88971;-84
2022/12/26 11:49:28;;;;;;;13.57;5.60;;;20.10;68.40;;;;;;5010683;28;88480;-84
2022/12/26 11:51:55;;;;;;;20.30;5.75;;;20.10;68.50;;;;;;5011444;28;87170;-85
2022/12/26 11:54:25;;;;;;;15.20;5.30;;;20.10;68.50;;;;;;5011237;28;87271;-85
2022/12/26 11:57:22;;;;;;;21.80;6.25;;;20.10;68.30;;;;;;5014794;27;88260;-85
2022/12/26 11:59:49;;;;;;;19.17;5.40;;;20.10;68.10;;;;;;4989285;28;87095;-86
2022/12/26 12:02:27;;;;;;;14.93;5.35;;;20.10;68.50;;;;;;4972663;28;87437;-86
2022/12/26 12:04:59;;;;;;;18.15;5.43;;;20.10;67.80;;;;;;4972843;28;87720;-86
2022/12/26 12:07:40;;;;;;;21.05;5.47;;;20.10;66.70;;;;;;4971566;28;87433;-86
2022/12/26 12:10:20;;;;;;;16.33;5.50;;;20.10;66.00;;;;;;4985161;28;87635;-87
2022/12/26 12:12:58;;;;;;;16.98;5.38;;;20.10;65.50;;;;;;4992677;28;87152;-86
2022/12/26 12:15:30;;;;;;;16.08;5.22;;;20.00;65.50;;;;;;4991911;28;89256;-86
2022/12/26 12:18:28;;;;;;;12.93;4.60;;;20.10;67.00;;;;;;4992563;28;89311;-87
2022/12/26 12:21:02;;;;;;;15.55;5.68;;;20.10;66.30;;;;;;4916889;28;87464;-87
2022/12/26 12:23:30;;;;;;;19.15;5.50;;;20.10;66.60;;;;;;4933161;28;87563;-87
2022/12/26 12:26:21;;;;;;;16.25;4.88;;;20.10;67.10;;;;;;4931824;28;92739;-86
2022/12/26 12:29:15;;;;;;;16.40;4.82;;;20.10;67.70;;;;;;4932057;28;87758;-85
2022/12/26 12:31:45;;;;;;;12.95;4.93;;;20.00;69.20;;;;;;4929565;28;87840;-86
2022/12/26 12:34:50;;;;;;;14.98;4.82;;;20.00;69.50;;;;;;4932172;28;87573;-86
2022/12/26 12:37:45;;;;;;;17.23;4.88;;;20.00;70.60;;;;;;4929326;28;88219;-86
2022/12/26 12:40:33;;;;;;;12.52;4.20;;;20.00;72.50;;;;;;4930263;28;88451;-86
2022/12/26 12:43:21;;;;;;;48.50;14.07;;;20.00;71.50;;;;;;4932078;28;88318;-88
2022/12/26 12:45:49;;;;;;;45.92;11.35;;;20.20;70.00;;;;;;4932900;28;87366;-89
2022/12/26 12:48:41;;;;;;;48.33;12.83;;;20.20;70.00;;;;;;4932029;28;88920;-90
2022/12/26 12:51:16;;;;;;;42.90;11.88;;;20.20;69.50;;;;;;4932021;28;87700;-89
2022/12/26 12:54:28;;;;;;;39.25;11.32;;;20.20;69.30;;;;;;4932479;28;87024;-89
2022/12/26 12:57:17;;;;;;;29.65;9.55;;;20.20;69.20;;;;;;4950612;28;87439;-89
2022/12/26 12:59:58;;;;;;;45.33;10.97;;;20.30;69.20;;;;;;4981908;28;91523;-88
2022/12/26 13:02:46;;;;;;;32.80;9.57;;;20.30;68.80;;;;;;4982181;28;86931;-88
2022/12/26 13:05:15;;;;;;;32.47;9.55;;;20.40;69.00;;;;;;4980507;28;88133;-83
2022/12/26 13:08:12;;;;;;;24.07;7.37;;;20.50;68.60;;;;;;4979557;28;87607;-89
2022/12/26 13:11:19;;;;;;;25.00;8.25;;;20.60;66.20;;;;;;4940799;28;89308;-88
2022/12/26 13:13:48;;;;;;;21.17;7.00;;;20.60;69.50;;;;;;4884171;28;88454;-89
2022/12/26 13:16:21;;;;;;;26.42;7.60;;;20.50;72.60;;;;;;4885289;28;87214;-89
2022/12/26 13:18:56;;;;;;;23.73;7.22;;;20.50;72.20;;;;;;4868996;28;89300;-88
2022/12/26 13:21:22;;;;;;;19.23;7.00;;;20.40;72.90;;;;;;4843127;28;1181452;-87
2022/12/26 13:26:44;;;;;;;20.75;5.90;;;20.20;68.80;;;;;;4887039;28;87615;-90
2022/12/26 13:29:30;;;;;;;16.80;5.90;;;20.10;65.90;;;;;;4888696;28;87741;-91
2022/12/26 13:31:58;;;;;;;18.20;5.60;;;20.10;64.70;;;;;;4866845;28;87440;-91
2022/12/26 13:34:24;;;;;;;12.75;5.10;;;20.10;64.10;;;;;;4874890;28;89773;-90
2022/12/26 13:36:59;;;;;;;13.75;4.63;;;20.10;62.90;;;;;;4874537;28;88804;-89
2022/12/26 13:39:29;;;;;;;15.60;5.10;;;20.10;63.00;;;;;;4878039;28;87880;-90
2022/12/26 13:44:51;;;;;;;13.93;5.50;;;20.20;66.40;;;;;;4883736;28;87465;-90
2022/12/26 13:47:33;;;;;;;18.98;5.20;;;20.40;66.40;;;;;;4906224;28;87684;-88
2022/12/26 13:50:37;;;;;;;18.13;5.43;;;20.50;66.30;;;;;;4931148;28;91718;-89
2022/12/26 13:53:04;;;;;;;10.57;4.75;;;20.70;66.20;;;;;;4931835;28;90927;-89
2022/12/26 13:55:41;;;;;;;11.20;4.65;;;20.80;65.80;;;;;;4931940;28;88869;-88
2022/12/26 13:58:25;;;;;;;13.18;4.75;;;21.00;66.00;;;;;;4932891;28;87364;-89
2022/12/26 14:00:54;;;;;;;11.65;4.95;;;21.00;65.80;;;;;;4931346;28;87421;-88
2022/12/26 14:03:44;;;;;;;12.13;4.65;;;21.10;65.60;;;;;;4931112;28;89263;-88
2022/12/26 14:06:32;;;;;;;15.77;5.50;;;21.10;66.50;;;;;;4931650;28;89231;-87
2022/12/26 14:09:19;;;;;;;9.33;4.50;;;21.10;65.30;;;;;;4908894;28;87645;-90
2022/12/26 14:12:03;;;;;;;11.55;4.47;;;21.20;65.30;;;;;;4943112;28;87727;-89
2022/12/26 14:14:47;;;;;;;16.25;5.05;;;21.20;64.70;;;;;;4962433;28;88252;-90
2022/12/26 14:17:36;;;;;;;13.73;4.78;;;21.20;65.30;;;;;;4919921;28;95067;-88
2022/12/26 14:20:29;;;;;;;11.63;4.65;;;21.10;64.90;;;;;;4922140;28;87106;-90
2022/12/26 14:23:13;;;;;;;8.40;4.13;;;21.10;65.00;;;;;;4922686;28;87239;-89
2022/12/26 14:25:48;;;;;;;10.63;4.55;;;21.00;64.90;;;;;;4922334;28;88773;-90
2022/12/26 14:28:31;;;;;;;12.50;4.28;;;21.00;65.00;;;;;;4921940;28;88341;-90
2022/12/26 14:31:20;;;;;;;10.82;4.43;;;21.00;64.90;;;;;;4921136;28;88610;-88
2022/12/26 14:34:00;;;;;;;9.45;3.85;;;21.00;65.10;;;;;;4921717;28;87700;-89
2022/12/26 14:36:34;;;;;;;11.57;3.88;;;21.00;64.90;;;;;;4920646;28;88560;-90
2022/12/26 14:39:28;;;;;;;12.77;4.15;;;20.90;65.00;;;;;;4922250;28;87678;-88
2022/12/26 14:44:51;;;;;;;17.42;4.55;;;21.00;64.50;;;;;;4922138;28;87777;-87
2022/12/26 14:47:41;;;;;;;10.43;4.20;;;21.10;62.40;;;;;;4992250;28;88319;-88
2022/12/26 14:50:31;;;;;;;12.75;3.50;;;21.20;62.30;;;;;;4992763;28;92804;-88
2022/12/26 14:53:18;;;;;;;9.30;3.30;;;21.20;61.40;;;;;;5012616;28;86909;-88
2022/12/26 14:55:52;;;;;;;11.27;3.55;;;21.20;59.40;;;;;;5012401;27;87943;-89
2022/12/26 14:58:30;;;;;;;10.93;4.07;;;21.30;58.40;;;;;;5024391;27;89006;-87
2022/12/26 15:01:12;;;;;;;7.38;3.20;;;21.30;57.00;;;;;;5017608;27;88393;-87
2022/12/26 15:03:43;;;;;;;10.45;3.40;;;21.40;56.60;;;;;;5022016;27;87565;-87
2022/12/26 15:06:18;;;;;;;6.43;2.90;;;21.50;57.00;;;;;;5018727;27;87630;-85
2022/12/26 15:09:00;;;;;;;9.55;3.22;;;21.60;57.30;;;;;;5014014;27;87604;-88
2022/12/26 15:11:54;;;;;;;10.18;3.38;;;21.60;57.30;;;;;;5012781;28;87843;-86
2022/12/26 15:14:41;;;;;;;21.80;3.75;;;21.60;57.50;;;;;;5013131;28;86864;-87
2022/12/26 15:17:12;;;;;;;11.00;3.13;;;21.60;58.20;;;;;;5013589;28;91730;-87
2022/12/26 15:19:53;;;;;;;9.52;3.70;;;21.60;58.60;;;;;;5011941;27;88710;-88
2022/12/26 15:22:35;;;;;;;8.23;3.20;;;21.60;58.90;;;;;;5013474;27;87823;-86